Weather at campo di volo privato masseria Antelmi

Public forecast

Using degrees Celsius for public forecast. Weather courtesy of forecast.io.

Closest aviation weather report (METAR) to campo di volo privato masseria Antelmi

Closest report is Brindisi Airport, 17.6 nm (32.7 km) ESE.

2024/03/01 01:50 (retrieved 39 minutes ago)

LIBR 010150Z 16009KT CAVOK 12/09 Q1007

Closest aviation forecast (TAF) to campo di volo privato masseria Antelmi

Forecast is more than 6 hours old.

Closest forecast is Foggia "Gino Lisa" Airport, 101.1 nm (187.2 km) WNW.

2024/02/29 18:00 Ammendment (retrieved 8 hours ago)

TAF AMD LIBF 292346Z 2918/0118 CNL